Time;durP1;ratioP1;P1;durP2;ratioP2;P2;SDS_P1;SDS_P2;PMS_P1;PMS_P2;Temp;Humidity;BMP_temperature;BMP_pressure;BME280_temperature;BME280_humidity;BME280_pressure;Samples;Min_cycle;Max_cycle;Signal;HPM_P1;HPM_P2
2021/09/03 00:01:22;;;;;;;;;28.50;26.75;;;;;;;;4992128;28;45427;-77
2021/09/03 00:03:47;;;;;;;;;26.00;26.00;;;;;;;;4992246;28;45512;-77
2021/09/03 00:06:12;;;;;;;;;32.25;27.50;;;;;;;;4992202;28;45638;-77
2021/09/03 00:08:38;;;;;;;;;31.75;27.50;;;;;;;;4992565;28;45411;-76
2021/09/03 00:11:04;;;;;;;;;25.25;25.25;;;;;;;;4994689;28;45756;-77
2021/09/03 00:13:29;;;;;;;;;30.25;30.00;;;;;;;;4992203;28;45400;-77
2021/09/03 00:15:54;;;;;;;;;39.00;33.00;;;;;;;;4991545;28;46066;-77
2021/09/03 00:18:19;;;;;;;;;29.50;26.00;;;;;;;;4992477;28;45416;-77
2021/09/03 00:20:45;;;;;;;;;37.00;27.75;;;;;;;;4992578;28;45396;-77
2021/09/03 00:23:10;;;;;;;;;32.00;28.00;;;;;;;;4994134;28;45415;-77
2021/09/03 00:25:35;;;;;;;;;26.75;25.50;;;;;;;;4991998;28;46261;-76
2021/09/03 00:28:00;;;;;;;;;30.50;24.75;;;;;;;;4990514;28;46461;-77
2021/09/03 00:30:25;;;;;;;;;33.00;31.75;;;;;;;;4990654;28;45853;-79
2021/09/03 00:32:51;;;;;;;;;28.50;28.50;;;;;;;;4992414;28;45470;-76
2021/09/03 00:35:16;;;;;;;;;24.00;23.00;;;;;;;;4993770;28;46045;-76
2021/09/03 00:37:41;;;;;;;;;30.50;28.25;;;;;;;;4991617;28;45284;-77
2021/09/03 00:40:06;;;;;;;;;26.25;23.50;;;;;;;;4992259;28;45379;-76
2021/09/03 00:42:32;;;;;;;;;26.75;25.25;;;;;;;;4992073;28;45466;-76
2021/09/03 00:44:57;;;;;;;;;32.50;28.75;;;;;;;;4991645;28;46232;-75
2021/09/03 00:47:23;;;;;;;;;26.25;22.25;;;;;;;;4993277;28;45247;-75
2021/09/03 00:49:48;;;;;;;;;29.00;23.50;;;;;;;;4993020;28;45778;-75
2021/09/03 00:52:14;;;;;;;;;28.75;28.50;;;;;;;;4992001;28;45485;-75
2021/09/03 00:54:39;;;;;;;;;30.00;27.00;;;;;;;;4991680;28;46050;-77
2021/09/03 00:57:04;;;;;;;;;28.50;26.25;;;;;;;;4991889;28;45366;-76
2021/09/03 00:59:29;;;;;;;;;31.00;29.25;;;;;;;;4992344;28;45389;-75
2021/09/03 01:01:55;;;;;;;;;29.50;25.25;;;;;;;;4993222;28;45448;-75
2021/09/03 01:04:20;;;;;;;;;26.00;24.25;;;;;;;;4991204;28;45497;-75
2021/09/03 01:06:46;;;;;;;;;22.75;21.25;;;;;;;;4990065;28;45353;-75
2021/09/03 01:09:11;;;;;;;;;26.00;19.75;;;;;;;;4990513;28;45361;-74
2021/09/03 01:11:36;;;;;;;;;27.50;24.75;;;;;;;;4991633;28;45374;-77
2021/09/03 01:14:02;;;;;;;;;26.50;24.75;;;;;;;;4975495;28;46282;-76
2021/09/03 01:16:27;;;;;;;;;27.75;25.50;;;;;;;;4991354;28;45496;-76
2021/09/03 01:18:52;;;;;;;;;29.25;24.50;;;;;;;;4989885;28;45470;-76
2021/09/03 01:21:18;;;;;;;;;29.75;24.25;;;;;;;;4991633;28;45326;-76
2021/09/03 01:23:43;;;;;;;;;31.00;29.75;;;;;;;;4991515;28;47098;-76
2021/09/03 01:26:08;;;;;;;;;27.75;25.00;;;;;;;;4992553;28;45354;-75
2021/09/03 01:28:33;;;;;;;;;28.50;25.00;;;;;;;;4991341;28;45843;-76
2021/09/03 01:30:59;;;;;;;;;28.75;26.50;;;;;;;;4991398;28;45430;-76
2021/09/03 01:33:24;;;;;;;;;25.25;22.25;;;;;;;;4991255;28;45485;-77
2021/09/03 01:35:49;;;;;;;;;31.75;29.50;;;;;;;;4991497;28;45364;-76
2021/09/03 01:38:15;;;;;;;;;30.50;27.25;;;;;;;;4993709;28;45367;-76
2021/09/03 01:40:40;;;;;;;;;32.50;31.00;;;;;;;;4991435;28;45584;-76
2021/09/03 01:43:05;;;;;;;;;26.00;25.75;;;;;;;;4991129;28;47436;-76
2021/09/03 01:45:31;;;;;;;;;34.50;30.25;;;;;;;;4989785;28;45438;-77
2021/09/03 01:47:56;;;;;;;;;32.25;29.25;;;;;;;;4988865;28;45401;-76
2021/09/03 01:50:21;;;;;;;;;29.75;27.75;;;;;;;;4993226;28;45407;-77
2021/09/03 01:52:46;;;;;;;;;27.00;25.25;;;;;;;;4991571;28;47000;-76
2021/09/03 01:55:12;;;;;;;;;30.00;26.00;;;;;;;;4991230;28;45369;-77
2021/09/03 01:57:37;;;;;;;;;31.25;25.75;;;;;;;;4991125;28;45513;-75
2021/09/03 02:00:03;;;;;;;;;28.50;23.50;;;;;;;;4991567;28;45473;-74
2021/09/03 02:02:29;;;;;;;;;33.25;28.50;;;;;;;;4992056;28;45607;-75
2021/09/03 02:04:54;;;;;;;;;29.75;26.50;;;;;;;;4992241;28;45458;-75
2021/09/03 02:07:20;;;;;;;;;27.75;26.25;;;;;;;;4991414;28;45556;-74
2021/09/03 02:09:45;;;;;;;;;29.50;23.00;;;;;;;;4990701;28;45429;-75
2021/09/03 02:12:12;;;;;;;;;32.00;29.25;;;;;;;;4989931;28;46158;-76
2021/09/03 02:14:38;;;;;;;;;27.50;24.75;;;;;;;;4990921;28;45524;-76
2021/09/03 02:17:03;;;;;;;;;32.25;28.50;;;;;;;;4993025;28;45367;-76
2021/09/03 02:19:29;;;;;;;;;29.00;28.75;;;;;;;;4990676;28;45431;-75
2021/09/03 02:21:54;;;;;;;;;35.50;28.00;;;;;;;;4991134;28;46245;-75
2021/09/03 02:24:19;;;;;;;;;30.25;26.25;;;;;;;;4989523;28;45392;-75
2021/09/03 02:26:44;;;;;;;;;28.75;27.00;;;;;;;;4990219;28;45220;-75
2021/09/03 02:29:10;;;;;;;;;29.75;25.75;;;;;;;;4991955;28;45287;-77
2021/09/03 02:31:35;;;;;;;;;30.25;25.75;;;;;;;;4990526;28;45489;-76
2021/09/03 02:34:00;;;;;;;;;29.00;26.75;;;;;;;;4990754;28;45392;-77
2021/09/03 02:36:25;;;;;;;;;31.75;27.25;;;;;;;;4973063;28;45473;-76
2021/09/03 02:38:50;;;;;;;;;31.50;30.25;;;;;;;;4990645;28;45366;-77
2021/09/03 02:41:16;;;;;;;;;32.50;31.25;;;;;;;;4992683;28;45264;-77
2021/09/03 02:43:41;;;;;;;;;26.00;23.75;;;;;;;;4990807;28;45481;-76
2021/09/03 02:46:06;;;;;;;;;31.00;25.75;;;;;;;;4990429;28;45457;-76
2021/09/03 02:48:31;;;;;;;;;34.25;31.50;;;;;;;;4990330;28;45474;-76
2021/09/03 02:50:56;;;;;;;;;28.00;24.25;;;;;;;;4990284;28;46072;-76
2021/09/03 02:53:22;;;;;;;;;34.25;30.75;;;;;;;;4991898;28;45351;-76
2021/09/03 02:55:47;;;;;;;;;33.75;31.50;;;;;;;;4989336;28;45426;-76
2021/09/03 02:58:12;;;;;;;;;35.00;29.25;;;;;;;;4990349;28;45286;-76
2021/09/03 03:00:38;;;;;;;;;35.00;32.00;;;;;;;;4989678;28;45311;-76
2021/09/03 03:03:03;;;;;;;;;38.00;29.50;;;;;;;;4988739;28;45568;-75
2021/09/03 03:05:28;;;;;;;;;35.25;31.75;;;;;;;;4991248;28;45242;-76
2021/09/03 03:07:53;;;;;;;;;34.25;27.25;;;;;;;;4990342;28;45442;-75
2021/09/03 03:10:19;;;;;;;;;36.25;32.25;;;;;;;;4990103;28;46129;-75
2021/09/03 03:12:46;;;;;;;;;35.00;30.00;;;;;;;;4990451;28;45410;-75
2021/09/03 03:15:11;;;;;;;;;27.00;25.50;;;;;;;;4990544;28;45451;-76
2021/09/03 03:17:36;;;;;;;;;32.75;30.00;;;;;;;;4990184;28;45410;-75
2021/09/03 03:20:02;;;;;;;;;43.00;34.75;;;;;;;;4992446;28;45354;-76
2021/09/03 03:22:27;;;;;;;;;37.25;34.25;;;;;;;;4990217;28;45605;-75
2021/09/03 03:24:53;;;;;;;;;37.25;30.00;;;;;;;;4989714;28;45320;-75
2021/09/03 03:27:18;;;;;;;;;34.25;31.25;;;;;;;;4990168;28;45296;-76
2021/09/03 03:29:43;;;;;;;;;41.00;33.50;;;;;;;;4990940;28;49162;-76
2021/09/03 03:32:08;;;;;;;;;34.00;32.00;;;;;;;;4991963;28;45394;-76
2021/09/03 03:34:34;;;;;;;;;41.75;33.75;;;;;;;;4989917;28;45409;-77
2021/09/03 03:36:59;;;;;;;;;33.75;32.00;;;;;;;;4989595;28;45462;-77
2021/09/03 03:39:24;;;;;;;;;38.50;34.25;;;;;;;;4989283;28;45309;-77
2021/09/03 03:41:50;;;;;;;;;34.75;31.25;;;;;;;;4988488;28;45370;-75
2021/09/03 03:44:15;;;;;;;;;34.50;30.25;;;;;;;;4987464;28;45434;-75
2021/09/03 03:46:40;;;;;;;;;43.00;33.50;;;;;;;;4987904;28;45453;-76
2021/09/03 03:49:06;;;;;;;;;29.00;27.00;;;;;;;;4989251;28;46013;-75
2021/09/03 03:51:31;;;;;;;;;41.25;35.00;;;;;;;;4989554;28;45640;-74
2021/09/03 03:53:56;;;;;;;;;31.75;29.25;;;;;;;;4989482;28;45480;-76
2021/09/03 03:56:21;;;;;;;;;43.25;35.25;;;;;;;;4990871;28;45330;-74
2021/09/03 03:58:46;;;;;;;;;41.50;35.00;;;;;;;;4988344;28;46525;-77
2021/09/03 04:01:12;;;;;;;;;44.25;33.50;;;;;;;;4989227;28;45344;-76
2021/09/03 04:03:38;;;;;;;;;36.75;33.25;;;;;;;;4989372;28;45598;-77
2021/09/03 04:06:03;;;;;;;;;44.00;35.50;;;;;;;;4989102;28;45442;-76
2021/09/03 04:08:28;;;;;;;;;40.75;33.00;;;;;;;;4989457;28;47288;-76
2021/09/03 04:10:53;;;;;;;;;40.75;34.00;;;;;;;;4990613;28;45573;-76
2021/09/03 04:13:19;;;;;;;;;41.75;35.00;;;;;;;;4992065;28;45488;-75
2021/09/03 04:15:45;;;;;;;;;44.75;35.00;;;;;;;;4991786;28;45550;-75
2021/09/03 04:18:10;;;;;;;;;46.25;36.75;;;;;;;;4991334;28;46079;-75
2021/09/03 04:20:35;;;;;;;;;42.25;34.25;;;;;;;;4992053;28;45478;-75
2021/09/03 04:23:01;;;;;;;;;44.75;37.75;;;;;;;;4973676;28;45483;-76
2021/09/03 04:25:26;;;;;;;;;45.00;38.25;;;;;;;;4990013;28;45294;-76
2021/09/03 04:27:51;;;;;;;;;40.50;35.25;;;;;;;;4991509;28;46295;-75
2021/09/03 04:30:16;;;;;;;;;41.50;35.75;;;;;;;;4991263;28;45517;-75
2021/09/03 04:32:42;;;;;;;;;45.50;36.25;;;;;;;;4991767;28;45327;-75
2021/09/03 04:35:07;;;;;;;;;39.25;33.75;;;;;;;;4993864;28;45285;-76
2021/09/03 04:37:38;;;;;;;;;44.00;39.25;;;;;;;;4990960;28;46568;-75
2021/09/03 04:40:03;;;;;;;;;40.00;34.00;;;;;;;;4991400;28;45299;-75
2021/09/03 04:42:28;;;;;;;;;47.25;38.25;;;;;;;;4991507;28;47699;-76
2021/09/03 04:44:54;;;;;;;;;43.25;37.25;;;;;;;;4991284;28;45422;-75
2021/09/03 04:47:19;;;;;;;;;41.75;35.75;;;;;;;;4992624;28;46913;-75
2021/09/03 04:49:44;;;;;;;;;44.75;38.75;;;;;;;;4991104;28;45423;-75
2021/09/03 04:52:09;;;;;;;;;41.00;37.00;;;;;;;;4990505;28;45400;-75
2021/09/03 04:54:34;;;;;;;;;47.75;38.50;;;;;;;;4990822;28;45317;-75
2021/09/03 04:57:00;;;;;;;;;45.50;36.75;;;;;;;;4991031;28;45455;-77
2021/09/03 04:59:25;;;;;;;;;49.00;39.75;;;;;;;;4991866;28;45454;-75
2021/09/03 05:01:50;;;;;;;;;36.75;34.75;;;;;;;;4990392;28;45323;-75
2021/09/03 05:04:15;;;;;;;;;40.75;33.00;;;;;;;;4989795;28;45284;-75
2021/09/03 05:06:40;;;;;;;;;47.25;39.00;;;;;;;;4984371;28;46094;-77
2021/09/03 05:09:05;;;;;;;;;38.50;34.50;;;;;;;;4991264;28;45267;-77
2021/09/03 05:11:31;;;;;;;;;46.25;38.00;;;;;;;;4992102;28;45304;-76
2021/09/03 05:13:56;;;;;;;;;45.75;38.00;;;;;;;;4992596;28;45301;-75
2021/09/03 05:16:21;;;;;;;;;41.75;34.25;;;;;;;;4990603;28;45370;-76
2021/09/03 05:18:46;;;;;;;;;48.75;40.00;;;;;;;;4973108;28;45391;-75
2021/09/03 05:21:12;;;;;;;;;43.25;37.25;;;;;;;;4989680;28;45743;-76
2021/09/03 05:23:37;;;;;;;;;50.50;41.50;;;;;;;;4990849;28;45387;-75
2021/09/03 05:26:03;;;;;;;;;50.00;38.00;;;;;;;;4992680;27;47825;-77
2021/09/03 05:28:28;;;;;;;;;48.75;40.00;;;;;;;;4990511;28;45501;-77
2021/09/03 05:30:54;;;;;;;;;46.50;38.50;;;;;;;;4990471;28;45468;-76
2021/09/03 05:33:19;;;;;;;;;47.25;37.75;;;;;;;;4991161;28;49653;-78
2021/09/03 05:35:44;;;;;;;;;48.75;39.50;;;;;;;;4985760;27;47284;-77
2021/09/03 05:38:09;;;;;;;;;47.25;39.50;;;;;;;;4996600;27;45417;-80
2021/09/03 05:40:35;;;;;;;;;41.00;33.75;;;;;;;;4971231;28;45509;-81
2021/09/03 05:43:00;;;;;;;;;45.75;38.25;;;;;;;;4989143;28;45618;-80
2021/09/03 05:45:26;;;;;;;;;46.00;38.25;;;;;;;;4972652;28;46328;-79
2021/09/03 05:47:52;;;;;;;;;47.75;39.50;;;;;;;;4991287;27;45521;-79
2021/09/03 05:50:18;;;;;;;;;39.50;35.00;;;;;;;;5026215;27;46831;-79
2021/09/03 05:52:43;;;;;;;;;50.75;42.00;;;;;;;;5035059;27;45383;-79
2021/09/03 05:55:09;;;;;;;;;47.75;36.00;;;;;;;;5031480;27;46203;-79
2021/09/03 05:57:34;;;;;;;;;51.50;41.00;;;;;;;;5016810;27;45276;-79
2021/09/03 05:59:59;;;;;;;;;52.00;40.00;;;;;;;;5027081;27;45349;-78
2021/09/03 06:02:25;;;;;;;;;47.50;38.75;;;;;;;;5028473;27;45476;-82
2021/09/03 06:04:51;;;;;;;;;42.75;36.50;;;;;;;;5014837;27;45625;-82
2021/09/03 06:07:16;;;;;;;;;46.50;38.00;;;;;;;;5034555;27;45372;-78
2021/09/03 06:09:41;;;;;;;;;44.25;36.25;;;;;;;;5009733;27;47085;-77
2021/09/03 06:12:06;;;;;;;;;45.25;38.00;;;;;;;;4980161;28;45404;-79
2021/09/03 06:14:31;;;;;;;;;46.25;37.00;;;;;;;;4990313;28;46192;-79
2021/09/03 06:16:57;;;;;;;;;51.25;40.25;;;;;;;;4992403;27;45376;-79
2021/09/03 06:19:22;;;;;;;;;46.25;37.50;;;;;;;;4992865;28;45363;-78
2021/09/03 06:21:47;;;;;;;;;40.50;37.75;;;;;;;;4993405;28;45415;-77
2021/09/03 06:24:29;;;;;;;;;42.75;35.50;;;;;;;;4997831;27;45783;-78
2021/09/03 06:26:56;;;;;;;;;43.75;36.00;;;;;;;;5045971;27;45438;-77
2021/09/03 06:29:40;;;;;;;;;42.50;36.50;;;;;;;;5038564;27;45462;-77
2021/09/03 06:32:07;;;;;;;;;49.00;41.00;;;;;;;;5058320;27;45442;-77
2021/09/03 06:34:33;;;;;;;;;42.50;35.75;;;;;;;;5014920;27;48218;-77
2021/09/03 06:36:58;;;;;;;;;41.00;35.25;;;;;;;;5036019;27;45519;-79
2021/09/03 06:39:23;;;;;;;;;41.25;37.00;;;;;;;;4986175;28;45497;-79
2021/09/03 06:41:49;;;;;;;;;41.50;36.75;;;;;;;;4987956;28;45433;-82
2021/09/03 06:44:14;;;;;;;;;42.00;36.00;;;;;;;;5037101;27;45578;-82
2021/09/03 06:46:39;;;;;;;;;39.00;34.00;;;;;;;;5014649;27;45426;-81
2021/09/03 06:49:04;;;;;;;;;42.75;37.50;;;;;;;;5020854;27;45486;-82
2021/09/03 06:51:29;;;;;;;;;38.00;33.50;;;;;;;;5030517;27;45421;-83
2021/09/03 06:53:55;;;;;;;;;47.50;36.00;;;;;;;;5033779;27;45720;-81
2021/09/03 06:56:20;;;;;;;;;42.50;33.25;;;;;;;;5047016;27;45298;-84
2021/09/03 06:58:45;;;;;;;;;44.50;36.25;;;;;;;;5065635;27;45314;-81
2021/09/03 07:01:10;;;;;;;;;42.50;36.75;;;;;;;;5013090;27;45257;-82
2021/09/03 07:03:35;;;;;;;;;47.25;38.75;;;;;;;;4995147;28;46816;-82
2021/09/03 07:06:00;;;;;;;;;39.25;33.00;;;;;;;;4995649;28;45287;-81
2021/09/03 07:08:26;;;;;;;;;37.75;33.25;;;;;;;;4991716;28;45248;-83
2021/09/03 07:10:51;;;;;;;;;41.00;34.25;;;;;;;;4989528;28;45364;-81
2021/09/03 07:13:16;;;;;;;;;46.50;38.25;;;;;;;;4989634;28;45451;-80
2021/09/03 07:15:42;;;;;;;;;44.25;34.25;;;;;;;;4990267;28;45293;-81
2021/09/03 07:18:07;;;;;;;;;42.75;36.00;;;;;;;;4988822;28;45438;-77
2021/09/03 07:20:32;;;;;;;;;37.00;34.00;;;;;;;;5009101;27;45305;-77
2021/09/03 07:23:00;;;;;;;;;36.50;32.75;;;;;;;;5012536;27;46010;-78
2021/09/03 07:25:25;;;;;;;;;34.50;30.75;;;;;;;;5039360;27;45475;-85
2021/09/03 07:27:51;;;;;;;;;42.25;33.25;;;;;;;;5032292;27;45470;-85
2021/09/03 07:30:16;;;;;;;;;41.75;33.25;;;;;;;;5036593;27;45471;-83
2021/09/03 07:32:43;;;;;;;;;35.75;30.00;;;;;;;;5035369;27;46251;-81
2021/09/03 07:35:09;;;;;;;;;38.50;34.50;;;;;;;;5043522;27;45395;-83
2021/09/03 07:37:34;;;;;;;;;32.00;29.50;;;;;;;;5036605;27;45470;-82
2021/09/03 07:39:59;;;;;;;;;38.00;33.00;;;;;;;;5020991;27;45225;-82
2021/09/03 07:42:24;;;;;;;;;39.00;31.00;;;;;;;;4990966;27;46173;-82
2021/09/03 07:44:50;;;;;;;;;34.00;31.00;;;;;;;;4988634;28;45520;-82
2021/09/03 07:47:15;;;;;;;;;25.00;22.50;;;;;;;;4995918;28;45415;-83
2021/09/03 07:49:40;;;;;;;;;31.50;27.50;;;;;;;;4997152;28;45387;-83
2021/09/03 07:52:06;;;;;;;;;33.00;30.50;;;;;;;;4993893;28;45605;-82
2021/09/03 07:54:31;;;;;;;;;32.50;30.50;;;;;;;;4992199;28;45412;-82
2021/09/03 07:56:56;;;;;;;;;31.00;28.00;;;;;;;;4992123;28;45385;-84
2021/09/03 07:59:21;;;;;;;;;24.75;23.75;;;;;;;;4994485;28;45354;-83
2021/09/03 08:01:46;;;;;;;;;30.75;28.00;;;;;;;;4991086;28;45345;-83
2021/09/03 08:04:12;;;;;;;;;33.75;31.00;;;;;;;;4992184;28;45326;-82
2021/09/03 08:06:37;;;;;;;;;39.00;34.75;;;;;;;;4992459;28;45509;-84
2021/09/03 08:09:03;;;;;;;;;30.75;27.50;;;;;;;;4992429;27;45558;-82
2021/09/03 08:11:28;;;;;;;;;37.25;30.50;;;;;;;;4996344;28;45621;-83
2021/09/03 08:13:53;;;;;;;;;28.50;27.00;;;;;;;;4993164;28;45415;-83
2021/09/03 08:16:19;;;;;;;;;30.25;28.50;;;;;;;;4991671;28;45498;-84
2021/09/03 08:18:44;;;;;;;;;28.00;26.75;;;;;;;;5014240;27;45241;-83
2021/09/03 08:21:09;;;;;;;;;29.75;27.50;;;;;;;;5028293;27;46417;-83
2021/09/03 08:23:35;;;;;;;;;30.75;27.50;;;;;;;;4992722;28;45307;-83
2021/09/03 08:26:00;;;;;;;;;33.75;29.50;;;;;;;;4993305;28;45327;-82
2021/09/03 08:28:25;;;;;;;;;35.00;29.75;;;;;;;;4995205;28;45327;-83
2021/09/03 08:30:51;;;;;;;;;26.50;25.00;;;;;;;;4992813;28;47554;-83
2021/09/03 08:33:16;;;;;;;;;26.50;25.50;;;;;;;;4996822;28;45495;-83
2021/09/03 08:35:41;;;;;;;;;25.25;21.50;;;;;;;;5007300;27;45219;-83
2021/09/03 08:38:07;;;;;;;;;23.50;22.25;;;;;;;;5047041;27;45414;-84
2021/09/03 08:40:33;;;;;;;;;24.00;23.25;;;;;;;;4996699;27;47017;-83
2021/09/03 08:42:59;;;;;;;;;31.25;24.25;;;;;;;;4991855;27;45481;-83
2021/09/03 08:45:24;;;;;;;;;20.50;19.00;;;;;;;;4989809;28;45453;-84
2021/09/03 08:47:50;;;;;;;;;19.75;18.75;;;;;;;;4991796;28;45517;-82
2021/09/03 08:50:16;;;;;;;;;29.00;24.50;;;;;;;;4993199;28;45487;-82
2021/09/03 08:52:45;;;;;;;;;24.25;22.75;;;;;;;;4991872;28;45481;-82
2021/09/03 08:55:11;;;;;;;;;25.75;22.75;;;;;;;;4992151;28;45513;-80
2021/09/03 08:57:36;;;;;;;;;22.75;22.25;;;;;;;;4985090;28;45338;-79
2021/09/03 09:00:20;;;;;;;;;30.00;27.00;;;;;;;;4992377;28;46275;-81
2021/09/03 09:02:56;;;;;;;;;21.50;19.50;;;;;;;;4993499;28;45288;-82
2021/09/03 09:05:21;;;;;;;;;24.75;23.75;;;;;;;;4972422;28;45824;-83
2021/09/03 09:07:47;;;;;;;;;19.75;18.50;;;;;;;;4992979;28;46056;-84
2021/09/03 09:10:12;;;;;;;;;22.00;20.00;;;;;;;;4972452;28;47764;-84
2021/09/03 09:12:45;;;;;;;;;17.00;17.00;;;;;;;;4991909;28;45413;-82
2021/09/03 09:15:10;;;;;;;;;20.25;17.25;;;;;;;;4992211;28;45337;-84
2021/09/03 09:17:38;;;;;;;;;20.50;18.25;;;;;;;;4999722;28;45188;-85
2021/09/03 09:20:08;;;;;;;;;18.25;18.25;;;;;;;;4997949;28;45296;-82
2021/09/03 09:22:49;;;;;;;;;19.25;17.50;;;;;;;;4991175;28;46421;-82
2021/09/03 09:25:24;;;;;;;;;20.50;20.00;;;;;;;;4991988;28;45381;-84
2021/09/03 09:27:50;;;;;;;;;21.50;19.25;;;;;;;;4990102;28;45481;-83
2021/09/03 09:30:23;;;;;;;;;20.50;19.25;;;;;;;;4991257;28;45399;-83
2021/09/03 09:33:07;;;;;;;;;21.00;19.25;;;;;;;;4990396;28;45355;-82
2021/09/03 09:35:32;;;;;;;;;19.25;18.75;;;;;;;;4991749;28;45264;-84
2021/09/03 09:37:57;;;;;;;;;22.00;18.50;;;;;;;;4990665;28;45531;-84
2021/09/03 09:40:22;;;;;;;;;17.75;15.75;;;;;;;;4989303;28;46336;-84
2021/09/03 09:42:48;;;;;;;;;21.25;20.75;;;;;;;;4971457;28;46114;-83
2021/09/03 09:45:14;;;;;;;;;24.50;24.50;;;;;;;;4999914;27;45354;-83
2021/09/03 09:47:42;;;;;;;;;24.00;20.50;;;;;;;;5041657;27;45501;-83
2021/09/03 09:50:27;;;;;;;;;25.50;20.00;;;;;;;;5054275;27;46227;-86
2021/09/03 09:52:52;;;;;;;;;26.75;26.75;;;;;;;;5030693;27;45334;-84
2021/09/03 09:55:18;;;;;;;;;24.25;24.00;;;;;;;;4997603;27;45357;-84
2021/09/03 09:57:49;;;;;;;;;26.25;25.50;;;;;;;;4982934;28;45264;-84
2021/09/03 10:00:14;;;;;;;;;21.75;20.00;;;;;;;;4983296;28;46101;-83
2021/09/03 10:02:40;;;;;;;;;21.00;19.50;;;;;;;;4994775;28;45453;-83
2021/09/03 10:05:05;;;;;;;;;34.25;27.75;;;;;;;;4984769;28;45328;-84
2021/09/03 10:07:31;;;;;;;;;23.25;21.75;;;;;;;;4991810;28;45375;-83
2021/09/03 10:09:57;;;;;;;;;20.00;18.75;;;;;;;;4990061;28;46575;-82
2021/09/03 10:12:22;;;;;;;;;21.75;18.50;;;;;;;;4984635;28;45282;-84
2021/09/03 10:14:49;;;;;;;;;19.75;19.25;;;;;;;;4991854;28;45450;-83
2021/09/03 10:17:14;;;;;;;;;23.50;20.75;;;;;;;;4992503;28;45271;-80
2021/09/03 10:19:41;;;;;;;;;25.00;22.50;;;;;;;;4966368;28;47176;-79
2021/09/03 10:22:13;;;;;;;;;25.50;23.75;;;;;;;;4990171;28;45473;-80
2021/09/03 10:24:42;;;;;;;;;20.25;18.25;;;;;;;;4988219;28;45328;-72
2021/09/03 10:27:08;;;;;;;;;19.50;18.50;;;;;;;;4989416;28;45472;-80
2021/09/03 10:29:36;;;;;;;;;18.75;17.50;;;;;;;;4990407;28;46964;-80
2021/09/03 10:32:08;;;;;;;;;26.00;23.00;;;;;;;;4990089;28;45269;-82
2021/09/03 10:34:39;;;;;;;;;26.75;22.25;;;;;;;;4989634;28;45497;-81
2021/09/03 10:37:05;;;;;;;;;21.50;20.00;;;;;;;;4990034;28;45771;-80
2021/09/03 10:39:40;;;;;;;;;17.25;17.25;;;;;;;;4990828;28;45690;-81
2021/09/03 10:42:06;;;;;;;;;23.75;20.75;;;;;;;;4991936;28;45669;-80
2021/09/03 10:44:51;;;;;;;;;20.50;17.00;;;;;;;;4992012;28;45259;-82
2021/09/03 10:47:29;;;;;;;;;21.75;17.75;;;;;;;;4996080;28;45301;-79
2021/09/03 10:49:58;;;;;;;;;22.25;21.00;;;;;;;;5024922;27;45410;-81
2021/09/03 10:52:23;;;;;;;;;28.50;25.50;;;;;;;;4988648;27;45537;-80
2021/09/03 10:54:48;;;;;;;;;19.25;18.25;;;;;;;;4966914;28;45296;-80
2021/09/03 10:57:17;;;;;;;;;20.50;18.50;;;;;;;;4975354;28;45311;-79
2021/09/03 11:00:01;;;;;;;;;19.00;16.50;;;;;;;;4989036;28;46583;-81
2021/09/03 11:02:26;;;;;;;;;17.25;16.75;;;;;;;;4987196;28;45409;-81
2021/09/03 11:04:51;;;;;;;;;19.75;17.00;;;;;;;;4989986;28;45631;-81
2021/09/03 11:07:17;;;;;;;;;18.00;16.75;;;;;;;;4989210;28;45523;-82
2021/09/03 11:09:43;;;;;;;;;18.50;17.00;;;;;;;;4988508;28;45343;-82
2021/09/03 11:12:10;;;;;;;;;17.25;16.25;;;;;;;;4988873;28;45514;-81
2021/09/03 11:14:35;;;;;;;;;20.00;19.00;;;;;;;;4988575;28;45412;-80
2021/09/03 11:17:04;;;;;;;;;27.75;24.75;;;;;;;;4990762;28;45441;-81
2021/09/03 11:19:32;;;;;;;;;20.50;20.50;;;;;;;;4988370;28;46217;-81
2021/09/03 11:22:03;;;;;;;;;17.75;17.00;;;;;;;;4990917;28;45629;-82
2021/09/03 11:24:36;;;;;;;;;13.50;13.50;;;;;;;;4973908;28;45496;-80
2021/09/03 11:27:05;;;;;;;;;15.75;15.75;;;;;;;;4991484;28;45551;-79
2021/09/03 11:29:31;;;;;;;;;15.25;14.00;;;;;;;;4991231;27;47164;-79
2021/09/03 11:31:59;;;;;;;;;18.00;17.25;;;;;;;;4998131;28;45309;-80
2021/09/03 11:34:43;;;;;;;;;13.00;13.00;;;;;;;;4996580;28;45331;-80
2021/09/03 11:37:10;;;;;;;;;17.75;14.75;;;;;;;;4985657;28;45553;-80
2021/09/03 11:39:36;;;;;;;;;18.25;18.25;;;;;;;;4991631;28;45502;-81
2021/09/03 11:42:01;;;;;;;;;19.00;19.00;;;;;;;;4991246;28;45344;-73
2021/09/03 11:44:26;;;;;;;;;15.50;15.50;;;;;;;;4992392;28;45453;-82
2021/09/03 11:46:51;;;;;;;;;16.25;16.25;;;;;;;;4991922;28;45543;-81
2021/09/03 11:49:23;;;;;;;;;14.00;14.00;;;;;;;;4990512;28;46696;-80
2021/09/03 11:52:01;;;;;;;;;18.50;18.50;;;;;;;;4981253;28;45444;-82
2021/09/03 11:54:27;;;;;;;;;10.25;10.25;;;;;;;;4979766;28;45539;-82
2021/09/03 11:56:56;;;;;;;;;13.75;13.75;;;;;;;;4989844;28;45436;-82
2021/09/03 11:59:21;;;;;;;;;20.25;19.75;;;;;;;;4994090;28;46181;-80
2021/09/03 12:01:59;;;;;;;;;13.75;12.00;;;;;;;;4992402;28;45424;-81
2021/09/03 12:04:25;;;;;;;;;14.75;12.75;;;;;;;;4989167;28;45368;-81
2021/09/03 12:06:50;;;;;;;;;10.00;8.75;;;;;;;;4991033;28;45351;-82
2021/09/03 12:09:34;;;;;;;;;11.50;11.50;;;;;;;;4990030;28;46668;-82
2021/09/03 12:11:59;;;;;;;;;9.00;9.00;;;;;;;;4976074;27;45895;-82
2021/09/03 12:14:24;;;;;;;;;13.75;11.25;;;;;;;;4996271;27;45276;-83
2021/09/03 12:16:50;;;;;;;;;11.00;9.25;;;;;;;;4999082;27;45483;-80
2021/09/03 12:19:15;;;;;;;;;10.25;9.25;;;;;;;;4992680;27;46035;-81
2021/09/03 12:21:43;;;;;;;;;12.00;11.00;;;;;;;;5004620;27;45449;-81
2021/09/03 12:24:10;;;;;;;;;13.50;10.75;;;;;;;;4991655;28;45388;-82
2021/09/03 12:26:46;;;;;;;;;11.50;11.50;;;;;;;;4992590;28;45369;-81
2021/09/03 12:29:13;;;;;;;;;13.00;12.00;;;;;;;;4992869;28;47615;-81
2021/09/03 12:31:38;;;;;;;;;12.25;12.25;;;;;;;;4990434;28;45752;-81
2021/09/03 12:34:08;;;;;;;;;12.25;12.00;;;;;;;;4988814;28;45480;-82
2021/09/03 12:36:37;;;;;;;;;14.25;13.00;;;;;;;;4991043;28;45433;-81
2021/09/03 12:39:07;;;;;;;;;10.25;10.25;;;;;;;;4991263;28;46926;-81
2021/09/03 12:41:37;;;;;;;;;12.25;9.50;;;;;;;;4991941;28;45546;-79
2021/09/03 12:44:04;;;;;;;;;12.50;11.50;;;;;;;;4984936;28;45499;-79
2021/09/03 12:46:34;;;;;;;;;11.25;11.00;;;;;;;;4990639;28;45441;-79
2021/09/03 12:49:02;;;;;;;;;9.75;9.75;;;;;;;;4989121;28;47178;-78
2021/09/03 12:51:27;;;;;;;;;11.00;10.25;;;;;;;;4988667;28;45323;-82
2021/09/03 12:53:53;;;;;;;;;14.25;11.50;;;;;;;;4991658;28;45282;-82
2021/09/03 12:56:19;;;;;;;;;13.00;12.75;;;;;;;;4993296;28;45456;-81
2021/09/03 12:58:45;;;;;;;;;15.50;13.00;;;;;;;;4997542;28;45455;-81
2021/09/03 13:01:10;;;;;;;;;11.75;11.75;;;;;;;;4997180;28;45488;-78
2021/09/03 13:03:35;;;;;;;;;12.25;11.25;;;;;;;;4991491;28;45436;-81
2021/09/03 13:06:00;;;;;;;;;11.75;10.50;;;;;;;;4990807;28;45457;-81
2021/09/03 13:08:25;;;;;;;;;10.75;10.75;;;;;;;;4992174;28;45327;-79
2021/09/03 13:10:51;;;;;;;;;16.75;15.50;;;;;;;;4990011;28;45377;-81
2021/09/03 13:13:16;;;;;;;;;15.25;14.00;;;;;;;;4992283;27;45517;-82
2021/09/03 13:15:41;;;;;;;;;12.00;12.00;;;;;;;;4989718;28;45541;-82
2021/09/03 13:18:08;;;;;;;;;12.00;12.00;;;;;;;;4989591;28;47021;-80
2021/09/03 13:20:33;;;;;;;;;13.00;10.75;;;;;;;;4990457;28;45501;-79
2021/09/03 13:22:58;;;;;;;;;14.25;14.25;;;;;;;;4990055;28;45314;-80
2021/09/03 13:25:23;;;;;;;;;14.75;13.75;;;;;;;;4990429;28;45402;-83
2021/09/03 13:27:49;;;;;;;;;11.00;11.00;;;;;;;;4989883;28;45994;-82
2021/09/03 13:30:14;;;;;;;;;13.25;11.00;;;;;;;;4989895;28;45568;-80
2021/09/03 13:32:39;;;;;;;;;10.25;10.25;;;;;;;;4990314;28;45520;-80
2021/09/03 13:35:04;;;;;;;;;14.75;14.75;;;;;;;;4992529;28;45485;-81
2021/09/03 13:37:30;;;;;;;;;15.00;15.00;;;;;;;;4989964;28;46310;-81
2021/09/03 13:39:55;;;;;;;;;10.00;10.00;;;;;;;;4991072;27;45452;-80
2021/09/03 13:42:20;;;;;;;;;12.75;11.50;;;;;;;;4996837;28;45565;-80
2021/09/03 13:44:45;;;;;;;;;9.75;9.75;;;;;;;;4993937;28;45513;-80
2021/09/03 13:47:11;;;;;;;;;10.00;10.00;;;;;;;;4992006;28;46069;-80
2021/09/03 13:49:36;;;;;;;;;8.50;8.50;;;;;;;;4988982;28;45297;-79
2021/09/03 13:52:01;;;;;;;;;13.50;12.25;;;;;;;;4990266;28;45342;-80
2021/09/03 13:54:26;;;;;;;;;10.75;10.75;;;;;;;;4990758;28;45485;-79
2021/09/03 13:56:53;;;;;;;;;9.50;9.50;;;;;;;;4990246;28;46175;-81
2021/09/03 13:59:18;;;;;;;;;14.75;13.50;;;;;;;;4988289;28;45478;-80
2021/09/03 14:01:43;;;;;;;;;12.00;12.00;;;;;;;;4988981;28;45625;-80
2021/09/03 14:04:09;;;;;;;;;10.75;10.00;;;;;;;;4989445;28;45402;-78
2021/09/03 14:06:34;;;;;;;;;14.00;14.00;;;;;;;;4972919;28;49237;-79
2021/09/03 14:08:59;;;;;;;;;22.25;21.75;;;;;;;;4987360;28;45472;-82
2021/09/03 14:11:25;;;;;;;;;10.00;10.00;;;;;;;;4991481;28;45468;-81
2021/09/03 14:13:50;;;;;;;;;12.00;10.50;;;;;;;;4991263;27;45613;-81